sensor_id;sensor_type;location;lat;lon;timestamp;pressure;altitude;pressure_sealevel;temperature;humidity
68822;BME280;55834;50.870;4.606;2022-09-09T00:00:16;100115.53;;;14.29;59.39
68822;BME280;55834;50.870;4.606;2022-09-09T00:02:54;100099.91;;;14.40;59.00
68822;BME280;55834;50.870;4.606;2022-09-09T00:05:37;100107.88;;;14.40;58.69
68822;BME280;55834;50.870;4.606;2022-09-09T00:08:04;100104.06;;;14.61;58.78
68822;BME280;55834;50.870;4.606;2022-09-09T00:18:45;100092.56;;;14.61;57.98
68822;BME280;55834;50.870;4.606;2022-09-09T00:21:15;100091.97;;;14.72;57.99
68822;BME280;55834;50.870;4.606;2022-09-09T00:23:48;100089.16;;;14.59;57.73
68822;BME280;55834;50.870;4.606;2022-09-09T00:29:53;100079.03;;;14.65;57.46
68822;BME280;55834;50.870;4.606;2022-09-09T00:32:19;100087.19;;;14.29;59.07
68822;BME280;55834;50.870;4.606;2022-09-09T00:34:55;100082.47;;;14.52;59.13
68822;BME280;55834;50.870;4.606;2022-09-09T00:37:23;100084.53;;;14.62;57.75
68822;BME280;55834;50.870;4.606;2022-09-09T00:39:53;100087.94;;;14.64;57.61
68822;BME280;55834;50.870;4.606;2022-09-09T00:42:26;100081.25;;;14.57;57.61
68822;BME280;55834;50.870;4.606;2022-09-09T00:47:52;100082.28;;;14.55;58.79
68822;BME280;55834;50.870;4.606;2022-09-09T00:53:55;100082.31;;;14.71;58.70
68822;BME280;55834;50.870;4.606;2022-09-09T00:56:28;100070.03;;;14.84;58.51
68822;BME280;55834;50.870;4.606;2022-09-09T00:59:18;100076.78;;;14.89;58.38
68822;BME280;55834;50.870;4.606;2022-09-09T01:01:44;100068.66;;;14.93;58.49
68822;BME280;55834;50.870;4.606;2022-09-09T01:04:16;100075.78;;;14.92;58.36
68822;BME280;55834;50.870;4.606;2022-09-09T01:06:50;100072.84;;;14.81;57.84
68822;BME280;55834;50.870;4.606;2022-09-09T01:09:32;100069.84;;;14.55;59.31
68822;BME280;55834;50.870;4.606;2022-09-09T01:12:23;100068.84;;;14.58;59.50
68822;BME280;55834;50.870;4.606;2022-09-09T01:14:51;100064.16;;;13.81;61.07
68822;BME280;55834;50.870;4.606;2022-09-09T01:17:32;100056.34;;;14.11;60.74
68822;BME280;55834;50.870;4.606;2022-09-09T01:22:56;100056.38;;;14.42;60.40
68822;BME280;55834;50.870;4.606;2022-09-09T01:28:10;100044.59;;;14.80;59.25
68822;BME280;55834;50.870;4.606;2022-09-09T01:30:40;100048.50;;;14.73;59.45
68822;BME280;55834;50.870;4.606;2022-09-09T01:33:13;100044.84;;;14.59;59.64
68822;BME280;55834;50.870;4.606;2022-09-09T01:35:50;100039.66;;;14.40;60.18
68822;BME280;55834;50.870;4.606;2022-09-09T01:38:19;100045.28;;;14.52;60.36
68822;BME280;55834;50.870;4.606;2022-09-09T01:40:46;100041.00;;;14.49;60.45
68822;BME280;55834;50.870;4.606;2022-09-09T01:43:11;100040.41;;;14.60;60.47
68822;BME280;55834;50.870;4.606;2022-09-09T01:45:39;100033.88;;;14.50;60.61
68822;BME280;55834;50.870;4.606;2022-09-09T01:48:06;100028.56;;;14.50;60.49
68822;BME280;55834;50.870;4.606;2022-09-09T01:50:31;100031.22;;;14.50;60.02
68822;BME280;55834;50.870;4.606;2022-09-09T01:52:58;100018.19;;;14.61;59.68
68822;BME280;55834;50.870;4.606;2022-09-09T01:55:37;100030.53;;;14.46;59.62
68822;BME280;55834;50.870;4.606;2022-09-09T01:58:34;100029.69;;;14.46;61.18
68822;BME280;55834;50.870;4.606;2022-09-09T02:03:51;100026.75;;;14.66;59.28
68822;BME280;55834;50.870;4.606;2022-09-09T02:06:37;100026.94;;;14.63;59.53
68822;BME280;55834;50.870;4.606;2022-09-09T02:09:05;100019.75;;;14.65;59.55
68822;BME280;55834;50.870;4.606;2022-09-09T02:11:32;100013.72;;;14.61;58.92
68822;BME280;55834;50.870;4.606;2022-09-09T02:14:16;100014.78;;;14.59;59.75
68822;BME280;55834;50.870;4.606;2022-09-09T02:16:50;100011.06;;;14.61;59.43
68822;BME280;55834;50.870;4.606;2022-09-09T02:19:21;100017.25;;;14.62;59.58
68822;BME280;55834;50.870;4.606;2022-09-09T02:21:52;100008.75;;;14.55;60.01
68822;BME280;55834;50.870;4.606;2022-09-09T02:24:19;100011.88;;;14.48;60.10
68822;BME280;55834;50.870;4.606;2022-09-09T02:26:49;100008.94;;;14.52;59.74
68822;BME280;55834;50.870;4.606;2022-09-09T02:29:22;100014.75;;;14.43;60.33
68822;BME280;55834;50.870;4.606;2022-09-09T02:31:49;100011.00;;;14.47;59.59
68822;BME280;55834;50.870;4.606;2022-09-09T02:34:17;100012.91;;;14.45;60.28
68822;BME280;55834;50.870;4.606;2022-09-09T02:36:45;100007.31;;;14.50;60.03
68822;BME280;55834;50.870;4.606;2022-09-09T02:39:12;100015.47;;;14.62;59.86
68822;BME280;55834;50.870;4.606;2022-09-09T02:41:41;100016.22;;;14.64;59.50
68822;BME280;55834;50.870;4.606;2022-09-09T02:44:12;100021.84;;;14.42;59.53
68822;BME280;55834;50.870;4.606;2022-09-09T02:50:00;100023.56;;;14.28;59.88
68822;BME280;55834;50.870;4.606;2022-09-09T02:53:14;100030.69;;;14.27;61.27
68822;BME280;55834;50.870;4.606;2022-09-09T02:57:57;100023.63;;;14.26;60.20
68822;BME280;55834;50.870;4.606;2022-09-09T03:00:28;100018.69;;;14.36;60.21
68822;BME280;55834;50.870;4.606;2022-09-09T03:02:54;100027.03;;;14.46;60.52
68822;BME280;55834;50.870;4.606;2022-09-09T03:05:20;100024.69;;;14.39;60.17
68822;BME280;55834;50.870;4.606;2022-09-09T03:07:46;100025.53;;;14.40;60.21
68822;BME280;55834;50.870;4.606;2022-09-09T03:10:12;100020.97;;;14.26;60.77
68822;BME280;55834;50.870;4.606;2022-09-09T03:12:37;100022.19;;;14.20;60.83
68822;BME280;55834;50.870;4.606;2022-09-09T03:15:04;100017.44;;;13.94;62.01
68822;BME280;55834;50.870;4.606;2022-09-09T03:17:29;100014.59;;;13.81;62.23
68822;BME280;55834;50.870;4.606;2022-09-09T03:19:54;100025.00;;;14.02;61.95
68822;BME280;55834;50.870;4.606;2022-09-09T03:22:20;100018.56;;;13.90;61.81
68822;BME280;55834;50.870;4.606;2022-09-09T03:24:46;100025.69;;;14.21;61.59
68822;BME280;55834;50.870;4.606;2022-09-09T03:27:12;100025.09;;;14.16;61.35
68822;BME280;55834;50.870;4.606;2022-09-09T03:29:39;100017.19;;;13.98;61.61
68822;BME280;55834;50.870;4.606;2022-09-09T03:32:05;100026.50;;;13.90;61.50
68822;BME280;55834;50.870;4.606;2022-09-09T03:34:30;100017.03;;;14.02;61.95
68822;BME280;55834;50.870;4.606;2022-09-09T03:36:56;100015.31;;;14.00;61.72
68822;BME280;55834;50.870;4.606;2022-09-09T03:39:21;100013.53;;;14.17;60.94
68822;BME280;55834;50.870;4.606;2022-09-09T03:41:47;100012.16;;;14.10;61.72
68822;BME280;55834;50.870;4.606;2022-09-09T03:44:13;100009.56;;;13.92;62.25
68822;BME280;55834;50.870;4.606;2022-09-09T03:46:39;99999.44;;;13.83;61.87
68822;BME280;55834;50.870;4.606;2022-09-09T03:49:04;100012.81;;;13.97;62.00
68822;BME280;55834;50.870;4.606;2022-09-09T03:51:29;100014.09;;;13.90;61.74
68822;BME280;55834;50.870;4.606;2022-09-09T03:53:55;100007.13;;;13.54;62.97
68822;BME280;55834;50.870;4.606;2022-09-09T03:56:23;100008.91;;;13.71;62.44
68822;BME280;55834;50.870;4.606;2022-09-09T03:58:48;99999.03;;;13.40;63.34
68822;BME280;55834;50.870;4.606;2022-09-09T04:01:14;99995.19;;;13.11;65.16
68822;BME280;55834;50.870;4.606;2022-09-09T04:03:42;99995.91;;;13.32;64.21
68822;BME280;55834;50.870;4.606;2022-09-09T04:06:09;100001.69;;;13.23;64.37
68822;BME280;55834;50.870;4.606;2022-09-09T04:08:36;99988.97;;;13.47;64.33
68822;BME280;55834;50.870;4.606;2022-09-09T04:11:02;99984.22;;;13.36;65.04
68822;BME280;55834;50.870;4.606;2022-09-09T04:13:32;99983.13;;;13.40;64.04
68822;BME280;55834;50.870;4.606;2022-09-09T04:16:00;99981.56;;;13.36;64.10
68822;BME280;55834;50.870;4.606;2022-09-09T04:18:26;99970.56;;;13.61;63.69
68822;BME280;55834;50.870;4.606;2022-09-09T04:20:53;99973.53;;;13.55;63.97
68822;BME280;55834;50.870;4.606;2022-09-09T04:23:20;99973.13;;;13.45;64.64
68822;BME280;55834;50.870;4.606;2022-09-09T04:25:50;99970.00;;;13.72;63.37
68822;BME280;55834;50.870;4.606;2022-09-09T04:28:16;99968.53;;;13.66;63.75
68822;BME280;55834;50.870;4.606;2022-09-09T04:30:43;99969.22;;;13.70;63.26
68822;BME280;55834;50.870;4.606;2022-09-09T04:33:09;99964.59;;;13.73;63.87
68822;BME280;55834;50.870;4.606;2022-09-09T04:35:35;99971.88;;;13.70;64.26
68822;BME280;55834;50.870;4.606;2022-09-09T04:38:00;99964.06;;;13.67;64.24
68822;BME280;55834;50.870;4.606;2022-09-09T04:40:28;99966.91;;;13.46;64.89
68822;BME280;55834;50.870;4.606;2022-09-09T04:42:54;99967.81;;;13.45;64.18
68822;BME280;55834;50.870;4.606;2022-09-09T04:45:20;99968.88;;;13.76;63.52
68822;BME280;55834;50.870;4.606;2022-09-09T04:47:45;99961.59;;;13.80;62.72
68822;BME280;55834;50.870;4.606;2022-09-09T04:50:10;99973.94;;;12.95;65.61
68822;BME280;55834;50.870;4.606;2022-09-09T04:52:37;99977.97;;;12.49;67.04
68822;BME280;55834;50.870;4.606;2022-09-09T04:55:03;99970.91;;;12.85;66.65
68822;BME280;55834;50.870;4.606;2022-09-09T04:57:28;99973.88;;;13.14;64.98
68822;BME280;55834;50.870;4.606;2022-09-09T04:59:54;99970.66;;;13.25;65.22
68822;BME280;55834;50.870;4.606;2022-09-09T05:02:19;99982.25;;;13.22;64.98
68822;BME280;55834;50.870;4.606;2022-09-09T05:04:44;99980.59;;;13.37;64.47
68822;BME280;55834;50.870;4.606;2022-09-09T05:07:10;99972.09;;;13.48;64.22
68822;BME280;55834;50.870;4.606;2022-09-09T05:09:35;99985.16;;;13.18;64.51
68822;BME280;55834;50.870;4.606;2022-09-09T05:12:01;99984.84;;;13.41;63.84
68822;BME280;55834;50.870;4.606;2022-09-09T05:14:27;99980.47;;;13.40;64.06
68822;BME280;55834;50.870;4.606;2022-09-09T05:16:53;99981.63;;;12.65;66.45
68822;BME280;55834;50.870;4.606;2022-09-09T05:19:18;99984.19;;;12.67;66.57
68822;BME280;55834;50.870;4.606;2022-09-09T05:21:45;99974.41;;;12.86;66.32
68822;BME280;55834;50.870;4.606;2022-09-09T05:24:10;99984.75;;;12.91;66.57
68822;BME280;55834;50.870;4.606;2022-09-09T05:26:36;99980.50;;;13.23;65.25
68822;BME280;55834;50.870;4.606;2022-09-09T05:29:01;99985.69;;;13.24;64.87
68822;BME280;55834;50.870;4.606;2022-09-09T05:31:29;99970.81;;;13.22;64.20
68822;BME280;55834;50.870;4.606;2022-09-09T05:33:55;99971.47;;;12.37;67.73
68822;BME280;55834;50.870;4.606;2022-09-09T05:36:21;99972.53;;;12.71;66.94
68822;BME280;55834;50.870;4.606;2022-09-09T05:38:47;99966.16;;;12.92;66.16
68822;BME280;55834;50.870;4.606;2022-09-09T05:41:13;99968.78;;;13.09;66.58
68822;BME280;55834;50.870;4.606;2022-09-09T05:43:42;99961.66;;;13.45;63.89
68822;BME280;55834;50.870;4.606;2022-09-09T05:46:22;99967.22;;;13.40;64.72
68822;BME280;55834;50.870;4.606;2022-09-09T05:48:48;99967.81;;;13.45;64.47
68822;BME280;55834;50.870;4.606;2022-09-09T05:51:26;99957.31;;;13.77;63.69
68822;BME280;55834;50.870;4.606;2022-09-09T05:53:53;99964.00;;;13.33;65.09
68822;BME280;55834;50.870;4.606;2022-09-09T05:56:23;99976.03;;;13.23;64.91
68822;BME280;55834;50.870;4.606;2022-09-09T05:58:50;99967.09;;;13.26;65.87
68822;BME280;55834;50.870;4.606;2022-09-09T06:01:22;99963.22;;;13.49;64.51
68822;BME280;55834;50.870;4.606;2022-09-09T06:03:48;99974.06;;;13.44;64.61
68822;BME280;55834;50.870;4.606;2022-09-09T06:06:17;99966.44;;;13.38;65.03
68822;BME280;55834;50.870;4.606;2022-09-09T06:08:53;99975.63;;;13.14;65.40
68822;BME280;55834;50.870;4.606;2022-09-09T06:11:24;99971.09;;;13.50;64.03
68822;BME280;55834;50.870;4.606;2022-09-09T06:13:51;99977.84;;;13.73;63.37
68822;BME280;55834;50.870;4.606;2022-09-09T06:16:20;99984.31;;;13.35;64.50
68822;BME280;55834;50.870;4.606;2022-09-09T06:18:48;99985.56;;;13.78;63.44
68822;BME280;55834;50.870;4.606;2022-09-09T06:21:26;99980.53;;;13.56;64.00
68822;BME280;55834;50.870;4.606;2022-09-09T06:23:52;99980.69;;;13.53;64.28
68822;BME280;55834;50.870;4.606;2022-09-09T06:26:22;99980.53;;;13.56;63.03
68822;BME280;55834;50.870;4.606;2022-09-09T06:28:49;99975.00;;;13.61;63.74
68822;BME280;55834;50.870;4.606;2022-09-09T06:31:19;99979.09;;;13.84;62.66
68822;BME280;55834;50.870;4.606;2022-09-09T06:33:49;99974.41;;;13.71;62.61
68822;BME280;55834;50.870;4.606;2022-09-09T06:36:16;99978.13;;;13.17;65.24
68822;BME280;55834;50.870;4.606;2022-09-09T06:38:43;99964.28;;;13.29;65.85
68822;BME280;55834;50.870;4.606;2022-09-09T06:41:10;99970.13;;;13.18;65.35
68822;BME280;55834;50.870;4.606;2022-09-09T06:43:36;99978.47;;;13.79;63.91
68822;BME280;55834;50.870;4.606;2022-09-09T06:46:05;99973.66;;;13.69;64.06
68822;BME280;55834;50.870;4.606;2022-09-09T06:48:31;99979.78;;;13.87;63.19
68822;BME280;55834;50.870;4.606;2022-09-09T06:51:06;99973.50;;;13.72;63.43
68822;BME280;55834;50.870;4.606;2022-09-09T06:53:33;99974.06;;;13.62;64.64
68822;BME280;55834;50.870;4.606;2022-09-09T06:56:21;99973.63;;;13.87;63.06
68822;BME280;55834;50.870;4.606;2022-09-09T06:58:46;99959.66;;;13.99;62.74
68822;BME280;55834;50.870;4.606;2022-09-09T07:01:16;99958.94;;;13.64;63.84
68822;BME280;55834;50.870;4.606;2022-09-09T07:03:47;99964.78;;;13.86;63.37
68822;BME280;55834;50.870;4.606;2022-09-09T07:06:19;99959.78;;;13.47;64.06
68822;BME280;55834;50.870;4.606;2022-09-09T07:08:51;99959.78;;;13.64;63.54
68822;BME280;55834;50.870;4.606;2022-09-09T07:11:20;99956.56;;;13.91;62.54
68822;BME280;55834;50.870;4.606;2022-09-09T07:13:46;99962.84;;;14.21;61.55
68822;BME280;55834;50.870;4.606;2022-09-09T07:16:14;99962.03;;;13.88;62.29
68822;BME280;55834;50.870;4.606;2022-09-09T07:18:40;99959.91;;;14.26;61.73
68822;BME280;55834;50.870;4.606;2022-09-09T07:21:06;99969.84;;;13.91;63.44
68822;BME280;55834;50.870;4.606;2022-09-09T07:23:33;99972.31;;;13.94;62.54
68822;BME280;55834;50.870;4.606;2022-09-09T07:26:00;99986.81;;;14.20;61.64
68822;BME280;55834;50.870;4.606;2022-09-09T07:28:26;99977.81;;;13.58;63.77
68822;BME280;55834;50.870;4.606;2022-09-09T07:30:57;99975.59;;;13.48;63.91
68822;BME280;55834;50.870;4.606;2022-09-09T07:33:23;99988.97;;;13.64;63.50
68822;BME280;55834;50.870;4.606;2022-09-09T07:35:50;99973.28;;;13.93;63.53
68822;BME280;55834;50.870;4.606;2022-09-09T07:38:15;99968.50;;;14.15;62.30
68822;BME280;55834;50.870;4.606;2022-09-09T07:40:41;99982.47;;;14.19;62.09
68822;BME280;55834;50.870;4.606;2022-09-09T07:43:07;99971.84;;;14.19;62.46
68822;BME280;55834;50.870;4.606;2022-09-09T07:45:34;99976.72;;;13.44;64.24
68822;BME280;55834;50.870;4.606;2022-09-09T07:48:01;99968.91;;;14.39;61.67
68822;BME280;55834;50.870;4.606;2022-09-09T07:50:26;99972.59;;;14.21;62.81
68822;BME280;55834;50.870;4.606;2022-09-09T07:52:52;99975.38;;;13.86;64.19
68822;BME280;55834;50.870;4.606;2022-09-09T07:55:19;99978.69;;;13.58;65.83
68822;BME280;55834;50.870;4.606;2022-09-09T07:57:44;99975.38;;;13.86;66.01
68822;BME280;55834;50.870;4.606;2022-09-09T08:00:10;99972.53;;;14.07;65.19
68822;BME280;55834;50.870;4.606;2022-09-09T08:02:39;99974.28;;;13.57;66.66
68822;BME280;55834;50.870;4.606;2022-09-09T08:05:05;99969.66;;;13.94;65.68
68822;BME280;55834;50.870;4.606;2022-09-09T08:07:31;99969.28;;;14.33;64.60
68822;BME280;55834;50.870;4.606;2022-09-09T08:09:56;99969.50;;;13.97;65.23
68822;BME280;55834;50.870;4.606;2022-09-09T08:12:22;99964.53;;;13.75;66.40
68822;BME280;55834;50.870;4.606;2022-09-09T08:14:48;99966.00;;;14.12;65.37
68822;BME280;55834;50.870;4.606;2022-09-09T08:17:14;99968.91;;;14.55;64.17
68822;BME280;55834;50.870;4.606;2022-09-09T08:19:39;99974.59;;;14.65;63.85
68822;BME280;55834;50.870;4.606;2022-09-09T08:22:06;99970.31;;;13.48;66.76
68822;BME280;55834;50.870;4.606;2022-09-09T08:24:31;99963.69;;;14.38;64.80
68822;BME280;55834;50.870;4.606;2022-09-09T08:26:56;99977.22;;;14.02;64.82
68822;BME280;55834;50.870;4.606;2022-09-09T08:29:23;99971.53;;;13.76;65.43
68822;BME280;55834;50.870;4.606;2022-09-09T08:31:54;99973.28;;;13.93;65.69
68822;BME280;55834;50.870;4.606;2022-09-09T08:34:20;99981.56;;;14.03;64.95
68822;BME280;55834;50.870;4.606;2022-09-09T08:36:47;99983.09;;;13.91;64.10
68822;BME280;55834;50.870;4.606;2022-09-09T08:39:13;99991.56;;;13.82;65.32
68822;BME280;55834;50.870;4.606;2022-09-09T08:47:42;99990.00;;;14.58;62.46
68822;BME280;55834;50.870;4.606;2022-09-09T08:55:50;100000.41;;;13.47;65.31
68822;BME280;55834;50.870;4.606;2022-09-09T08:58:43;100003.47;;;13.22;66.85
68822;BME280;55834;50.870;4.606;2022-09-09T09:03:48;100014.38;;;13.51;66.58
68822;BME280;55834;50.870;4.606;2022-09-09T09:12:00;100017.09;;;13.84;66.25
68822;BME280;55834;50.870;4.606;2022-09-09T09:14:28;100028.56;;;14.50;64.89
68822;BME280;55834;50.870;4.606;2022-09-09T09:17:04;100026.06;;;13.97;65.18
68822;BME280;55834;50.870;4.606;2022-09-09T09:19:33;100035.44;;;14.54;64.48
68822;BME280;55834;50.870;4.606;2022-09-09T09:22:06;100024.16;;;14.17;64.92
68822;BME280;55834;50.870;4.606;2022-09-09T09:27:25;100029.13;;;14.23;65.03
68822;BME280;55834;50.870;4.606;2022-09-09T09:29:55;100040.78;;;14.36;64.71
68822;BME280;55834;50.870;4.606;2022-09-09T09:32:24;100028.47;;;14.67;64.17
68822;BME280;55834;50.870;4.606;2022-09-09T09:34:56;100028.47;;;14.67;63.99
68822;BME280;55834;50.870;4.606;2022-09-09T09:37:29;100035.63;;;14.17;64.71
68822;BME280;55834;50.870;4.606;2022-09-09T09:39:55;100029.13;;;13.57;67.68
68822;BME280;55834;50.870;4.606;2022-09-09T09:42:20;100029.56;;;14.31;66.25
68822;BME280;55834;50.870;4.606;2022-09-09T09:44:46;100037.56;;;14.63;64.86
68822;BME280;55834;50.870;4.606;2022-09-09T09:49:38;100040.06;;;14.17;66.48
68822;BME280;55834;50.870;4.606;2022-09-09T09:52:06;100038.38;;;14.32;66.17
68822;BME280;55834;50.870;4.606;2022-09-09T09:54:37;100037.13;;;13.90;66.14
68822;BME280;55834;50.870;4.606;2022-09-09T09:57:14;100045.25;;;14.36;65.75
68822;BME280;55834;50.870;4.606;2022-09-09T09:59:40;100046.13;;;14.52;65.30
68822;BME280;55834;50.870;4.606;2022-09-09T10:02:20;100045.00;;;14.88;64.32
68822;BME280;55834;50.870;4.606;2022-09-09T10:05:02;100041.78;;;14.02;66.28
68822;BME280;55834;50.870;4.606;2022-09-09T10:07:28;100040.91;;;14.51;65.32
68822;BME280;55834;50.870;4.606;2022-09-09T10:09:57;100045.66;;;14.44;66.57
68822;BME280;55834;50.870;4.606;2022-09-09T10:20:18;100045.25;;;13.87;67.06
68822;BME280;55834;50.870;4.606;2022-09-09T10:22:52;100058.22;;;14.74;65.55
68822;BME280;55834;50.870;4.606;2022-09-09T10:28:24;100056.56;;;13.90;67.73
68822;BME280;55834;50.870;4.606;2022-09-09T10:31:15;100061.31;;;14.01;67.26
68822;BME280;55834;50.870;4.606;2022-09-09T10:36:17;100052.81;;;13.77;67.93
68822;BME280;55834;50.870;4.606;2022-09-09T10:38:46;100057.34;;;14.08;67.14
68822;BME280;55834;50.870;4.606;2022-09-09T10:43:56;100058.59;;;14.34;66.20
68822;BME280;55834;50.870;4.606;2022-09-09T10:56:58;100068.31;;;14.67;64.40
68822;BME280;55834;50.870;4.606;2022-09-09T10:59:33;100061.13;;;14.69;65.51
68822;BME280;55834;50.870;4.606;2022-09-09T11:02:23;100060.13;;;15.02;64.43
68822;BME280;55834;50.870;4.606;2022-09-09T11:04:55;100053.19;;;16.04;61.39
68822;BME280;55834;50.870;4.606;2022-09-09T11:07:37;100054.06;;;15.00;64.37
68822;BME280;55834;50.870;4.606;2022-09-09T11:10:13;100055.47;;;14.91;64.89
68822;BME280;55834;50.870;4.606;2022-09-09T11:12:43;100058.06;;;14.45;65.88
68822;BME280;55834;50.870;4.606;2022-09-09T11:15:20;100060.88;;;14.58;65.81
68822;BME280;55834;50.870;4.606;2022-09-09T11:17:52;100055.78;;;15.47;63.17
68822;BME280;55834;50.870;4.606;2022-09-09T11:20:19;100070.56;;;14.91;64.22
68822;BME280;55834;50.870;4.606;2022-09-09T11:25:30;100066.53;;;15.29;63.57
68822;BME280;55834;50.870;4.606;2022-09-09T11:34:12;100064.75;;;17.02;58.35
68822;BME280;55834;50.870;4.606;2022-09-09T11:42:21;100081.81;;;16.29;58.83
68822;BME280;55834;50.870;4.606;2022-09-09T11:44:48;100076.25;;;16.61;59.31
68822;BME280;55834;50.870;4.606;2022-09-09T11:47:30;100076.63;;;16.69;58.87
68822;BME280;55834;50.870;4.606;2022-09-09T11:52:42;100079.44;;;16.24;58.94
68822;BME280;55834;50.870;4.606;2022-09-09T11:55:35;100081.16;;;16.81;57.38
68822;BME280;55834;50.870;4.606;2022-09-09T12:08:43;100068.66;;;16.55;57.93
68822;BME280;55834;50.870;4.606;2022-09-09T12:11:10;100078.03;;;16.33;59.92
68822;BME280;55834;50.870;4.606;2022-09-09T12:13:36;100072.00;;;15.87;59.81
68822;BME280;55834;50.870;4.606;2022-09-09T12:16:02;100070.63;;;16.24;58.36
68822;BME280;55834;50.870;4.606;2022-09-09T12:18:35;100073.50;;;15.91;59.93
68822;BME280;55834;50.870;4.606;2022-09-09T12:26:32;100069.34;;;17.65;55.69
68822;BME280;55834;50.870;4.606;2022-09-09T12:29:05;100059.44;;;17.67;55.95
68822;BME280;55834;50.870;4.606;2022-09-09T12:31:46;100070.63;;;17.59;55.66
68822;BME280;55834;50.870;4.606;2022-09-09T12:39:55;100076.44;;;16.58;57.56
68822;BME280;55834;50.870;4.606;2022-09-09T12:42:22;100073.69;;;17.01;56.67
68822;BME280;55834;50.870;4.606;2022-09-09T12:44:55;100058.13;;;17.07;56.39
68822;BME280;55834;50.870;4.606;2022-09-09T12:49:55;100069.22;;;16.87;56.81
68822;BME280;55834;50.870;4.606;2022-09-09T12:52:28;100070.56;;;16.94;56.76
68822;BME280;55834;50.870;4.606;2022-09-09T12:54:55;100058.50;;;16.47;58.30
68822;BME280;55834;50.870;4.606;2022-09-09T12:57:23;100071.81;;;16.47;58.08
68822;BME280;55834;50.870;4.606;2022-09-09T12:59:51;100064.41;;;16.79;58.26
68822;BME280;55834;50.870;4.606;2022-09-09T13:02:25;100065.28;;;16.24;59.05
68822;BME280;55834;50.870;4.606;2022-09-09T13:04:52;100057.16;;;16.81;57.62
68822;BME280;55834;50.870;4.606;2022-09-09T13:07:18;100051.09;;;17.06;56.85
68822;BME280;55834;50.870;4.606;2022-09-09T13:09:45;100059.25;;;17.30;55.41
68822;BME280;55834;50.870;4.606;2022-09-09T13:12:13;100052.19;;;17.69;55.45
68822;BME280;55834;50.870;4.606;2022-09-09T13:14:38;100049.88;;;17.90;53.82
68822;BME280;55834;50.870;4.606;2022-09-09T13:17:06;100046.81;;;17.31;54.82
68822;BME280;55834;50.870;4.606;2022-09-09T13:19:45;100047.09;;;17.79;55.60
68822;BME280;55834;50.870;4.606;2022-09-09T13:22:40;100043.13;;;17.85;55.30
68822;BME280;55834;50.870;4.606;2022-09-09T13:27:38;100048.88;;;17.91;54.56
68822;BME280;55834;50.870;4.606;2022-09-09T13:30:27;100053.59;;;17.88;53.41
68822;BME280;55834;50.870;4.606;2022-09-09T13:35:53;100040.50;;;17.45;54.44
68822;BME280;55834;50.870;4.606;2022-09-09T13:38:19;100043.97;;;17.85;53.44
68822;BME280;55834;50.870;4.606;2022-09-09T13:40:56;100044.28;;;18.19;53.35
68822;BME280;55834;50.870;4.606;2022-09-09T13:43:23;100052.78;;;18.49;51.42
68822;BME280;55834;50.870;4.606;2022-09-09T13:45:54;100044.81;;;18.74;51.02
68822;BME280;55834;50.870;4.606;2022-09-09T13:48:22;100053.00;;;18.34;51.94
68822;BME280;55834;50.870;4.606;2022-09-09T13:50:55;100054.22;;;18.17;52.45
68822;BME280;55834;50.870;4.606;2022-09-09T13:53:21;100050.88;;;17.62;53.53
68822;BME280;55834;50.870;4.606;2022-09-09T13:55:47;100046.81;;;17.56;52.62
68822;BME280;55834;50.870;4.606;2022-09-09T13:58:17;100056.53;;;17.45;53.39
68822;BME280;55834;50.870;4.606;2022-09-09T14:00:46;100048.25;;;17.88;52.37
68822;BME280;55834;50.870;4.606;2022-09-09T14:03:12;100054.47;;;18.01;51.27
68822;BME280;55834;50.870;4.606;2022-09-09T14:05:38;100053.50;;;17.89;52.42
68822;BME280;55834;50.870;4.606;2022-09-09T14:08:06;100054.66;;;18.23;50.60
68822;BME280;55834;50.870;4.606;2022-09-09T14:10:31;100048.78;;;17.93;51.54
68822;BME280;55834;50.870;4.606;2022-09-09T14:12:57;100062.34;;;18.15;50.11
68822;BME280;55834;50.870;4.606;2022-09-09T14:15:22;100053.16;;;18.69;49.35
68822;BME280;55834;50.870;4.606;2022-09-09T14:17:47;100053.50;;;18.88;48.71
68822;BME280;55834;50.870;4.606;2022-09-09T14:20:14;100058.88;;;18.39;49.49
68822;BME280;55834;50.870;4.606;2022-09-09T14:22:40;100049.31;;;17.85;50.32
68822;BME280;55834;50.870;4.606;2022-09-09T14:25:06;100049.09;;;17.63;51.68
68822;BME280;55834;50.870;4.606;2022-09-09T14:27:31;100046.00;;;18.07;51.20
68822;BME280;55834;50.870;4.606;2022-09-09T14:29:57;100055.06;;;18.17;50.73
68822;BME280;55834;50.870;4.606;2022-09-09T14:32:23;100046.94;;;18.19;52.17
68822;BME280;55834;50.870;4.606;2022-09-09T14:34:48;100061.97;;;17.43;52.57
68822;BME280;55834;50.870;4.606;2022-09-09T14:37:17;100059.22;;;17.57;52.75
68822;BME280;55834;50.870;4.606;2022-09-09T14:39:43;100058.59;;;17.67;51.32
68822;BME280;55834;50.870;4.606;2022-09-09T14:42:13;100059.94;;;17.59;52.26
68822;BME280;55834;50.870;4.606;2022-09-09T14:44:39;100062.31;;;17.64;52.22
68822;BME280;55834;50.870;4.606;2022-09-09T14:47:05;100060.53;;;17.90;50.60
68822;BME280;55834;50.870;4.606;2022-09-09T14:49:30;100065.78;;;18.04;51.19
68822;BME280;55834;50.870;4.606;2022-09-09T14:51:56;100057.00;;;18.02;50.45
68822;BME280;55834;50.870;4.606;2022-09-09T14:54:21;100054.50;;;17.74;52.69
68822;BME280;55834;50.870;4.606;2022-09-09T14:56:48;100060.06;;;17.71;52.60
68822;BME280;55834;50.870;4.606;2022-09-09T14:59:13;100051.34;;;17.81;52.21
68822;BME280;55834;50.870;4.606;2022-09-09T15:01:39;100050.47;;;18.19;52.43
68822;BME280;55834;50.870;4.606;2022-09-09T15:04:05;100052.88;;;17.86;52.71
68822;BME280;55834;50.870;4.606;2022-09-09T15:06:34;100055.22;;;17.77;52.85
68822;BME280;55834;50.870;4.606;2022-09-09T15:09:02;100043.75;;;17.63;52.34
68822;BME280;55834;50.870;4.606;2022-09-09T15:11:29;100047.31;;;17.89;52.27
68822;BME280;55834;50.870;4.606;2022-09-09T15:13:56;100052.53;;;18.03;52.20